ACA429 CYUL-CYYZ
Flight info
| Callsign | ACA429 |
|---|---|
| Flight time | 0h 53m |
| Altitude | 36000 |
| Route | BOBKI DCT MELTI DCT TORNI RAGID6 |
| Aircraft | A321/M-SDE3FGHIRWY/LB1 |
Departure
| Time | 2026-05-04 02:02 |
|---|---|
| Airport | Montreal / Pierre Elliott Trudeau International Airport (CYUL) |
Arrival
| Time | 2026-05-04 02:55 |
|---|---|
| Airport | Toronto Pearson International Airport (CYYZ) |
| Time | Latitude | Longitude | Altitude | Speed | Heading |
|---|---|---|---|---|---|
| 2026-05-04 01:25 | 45.45933 | -73.74951 | 105 ft | 0 kts | 179° |
| 2026-05-04 01:50 | 45.45955 | -73.74953 | 104 ft | 2 kts | 160° |
| 2026-05-04 01:50 | 45.45976 | -73.74966 | 103 ft | 4 kts | 145° |
| 2026-05-04 01:50 | 45.45995 | -73.74993 | 103 ft | 3 kts | 119° |
| 2026-05-04 01:51 | 45.45997 | -73.74998 | 103 ft | 0 kts | 117° |
| 2026-05-04 01:53 | 45.45996 | -73.74997 | 103 ft | 1 kts | 117° |
| 2026-05-04 01:54 | 45.45982 | -73.74939 | 105 ft | 10 kts | 97° |
| 2026-05-04 01:54 | 45.45983 | -73.74828 | 105 ft | 11 kts | 90° |
| 2026-05-04 01:54 | 45.45968 | -73.74727 | 104 ft | 10 kts | 110° |
| 2026-05-04 01:54 | 45.45959 | -73.74585 | 105 ft | 17 kts | 81° |
| 2026-05-04 01:55 | 45.45996 | -73.74450 | 104 ft | 14 kts | 68° |
| 2026-05-04 01:55 | 45.45970 | -73.74332 | 103 ft | 14 kts | 131° |
| 2026-05-04 01:55 | 45.45887 | -73.74254 | 103 ft | 7 kts | 122° |
| 2026-05-04 01:55 | 45.45922 | -73.74223 | 103 ft | 13 kts | 359° |
| 2026-05-04 01:56 | 45.46018 | -73.74208 | 102 ft | 14 kts | 27° |
| 2026-05-04 01:56 | 45.46103 | -73.74104 | 104 ft | 19 kts | 43° |
| 2026-05-04 01:56 | 45.46196 | -73.73984 | 104 ft | 17 kts | 42° |
| 2026-05-04 01:56 | 45.46281 | -73.73872 | 106 ft | 16 kts | 43° |
| 2026-05-04 01:57 | 45.46372 | -73.73753 | 108 ft | 21 kts | 43° |
| 2026-05-04 01:57 | 45.46498 | -73.73591 | 109 ft | 25 kts | 43° |
| 2026-05-04 01:57 | 45.46623 | -73.73426 | 111 ft | 24 kts | 43° |
| 2026-05-04 01:57 | 45.46738 | -73.73273 | 113 ft | 22 kts | 43° |
| 2026-05-04 01:58 | 45.46845 | -73.73133 | 115 ft | 20 kts | 43° |
| 2026-05-04 01:58 | 45.46942 | -73.73006 | 113 ft | 18 kts | 42° |
| 2026-05-04 01:58 | 45.47029 | -73.72893 | 116 ft | 16 kts | 42° |
| 2026-05-04 01:58 | 45.47111 | -73.72786 | 114 ft | 18 kts | 42° |
| 2026-05-04 01:59 | 45.47233 | -73.72627 | 114 ft | 25 kts | 42° |
| 2026-05-04 01:59 | 45.47360 | -73.72461 | 118 ft | 24 kts | 42° |
| 2026-05-04 01:59 | 45.47479 | -73.72303 | 119 ft | 23 kts | 43° |
| 2026-05-04 01:59 | 45.47592 | -73.72156 | 118 ft | 21 kts | 43° |
| 2026-05-04 02:00 | 45.47698 | -73.72018 | 119 ft | 20 kts | 42° |
| 2026-05-04 02:00 | 45.47795 | -73.71889 | 120 ft | 17 kts | 45° |
| 2026-05-04 02:00 | 45.47780 | -73.71749 | 121 ft | 15 kts | 123° |
| 2026-05-04 02:00 | 45.47719 | -73.71645 | 125 ft | 12 kts | 146° |
| 2026-05-04 02:01 | 45.47639 | -73.71686 | 124 ft | 6 kts | 224° |
| 2026-05-04 02:01 | 45.47605 | -73.71730 | 123 ft | 28 kts | 223° |
| 2026-05-04 02:01 | 45.47275 | -73.72168 | 117 ft | 98 kts | 223° |
| 2026-05-04 02:01 | 45.46639 | -73.73004 | 112 ft | 148 kts | 223° |
| 2026-05-04 02:02 | 45.45897 | -73.74035 | 685 ft | 144 kts | 226° |
| 2026-05-04 02:02 | 45.45181 | -73.75043 | 1319 ft | 146 kts | 225° |
| 2026-05-04 02:02 | 45.44651 | -73.76300 | 1839 ft | 153 kts | 252° |
| 2026-05-04 02:02 | 45.44425 | -73.77783 | 2367 ft | 158 kts | 261° |
| 2026-05-04 02:03 | 45.44298 | -73.79393 | 2832 ft | 169 kts | 263° |
| 2026-05-04 02:03 | 45.44178 | -73.81093 | 3326 ft | 175 kts | 264° |
| 2026-05-04 02:03 | 45.44071 | -73.82816 | 3931 ft | 174 kts | 264° |
| 2026-05-04 02:03 | 45.43939 | -73.84520 | 4568 ft | 173 kts | 264° |
| 2026-05-04 02:04 | 45.43831 | -73.86315 | 4887 ft | 193 kts | 269° |
| 2026-05-04 02:04 | 45.43840 | -73.88347 | 5223 ft | 217 kts | 271° |
| 2026-05-04 02:04 | 45.43860 | -73.90611 | 5609 ft | 240 kts | 270° |
| 2026-05-04 02:04 | 45.43851 | -73.93051 | 6310 ft | 249 kts | 270° |
| 2026-05-04 02:05 | 45.43808 | -73.95530 | 7187 ft | 251 kts | 269° |
| 2026-05-04 02:05 | 45.43739 | -73.98025 | 8099 ft | 253 kts | 269° |
| 2026-05-04 02:05 | 45.43651 | -74.00530 | 8990 ft | 255 kts | 270° |
| 2026-05-04 02:05 | 45.43551 | -74.03067 | 9851 ft | 258 kts | 270° |
| 2026-05-04 02:06 | 45.43442 | -74.05671 | 10359 ft | 273 kts | 270° |
| 2026-05-04 02:06 | 45.43321 | -74.08484 | 10578 ft | 297 kts | 269° |
| 2026-05-04 02:06 | 45.43181 | -74.11497 | 11002 ft | 311 kts | 269° |
| 2026-05-04 02:06 | 45.43031 | -74.14591 | 11703 ft | 316 kts | 269° |
| 2026-05-04 02:07 | 45.42881 | -74.17727 | 12430 ft | 320 kts | 269° |
| 2026-05-04 02:07 | 45.42732 | -74.20909 | 13184 ft | 324 kts | 269° |
| 2026-05-04 02:07 | 45.42581 | -74.24125 | 13884 ft | 328 kts | 269° |
| 2026-05-04 02:07 | 45.42427 | -74.27379 | 14544 ft | 331 kts | 269° |
| 2026-05-04 02:08 | 45.42270 | -74.30672 | 15216 ft | 334 kts | 269° |
| 2026-05-04 02:08 | 45.42109 | -74.33976 | 15905 ft | 337 kts | 269° |
| 2026-05-04 02:08 | 45.41944 | -74.37321 | 16566 ft | 340 kts | 269° |
| 2026-05-04 02:08 | 45.41777 | -74.40691 | 17206 ft | 344 kts | 269° |
| 2026-05-04 02:09 | 45.41482 | -74.44089 | 17842 ft | 350 kts | 261° |
| 2026-05-04 02:09 | 45.40921 | -74.47479 | 18429 ft | 353 kts | 260° |
| 2026-05-04 02:09 | 45.40348 | -74.50892 | 18987 ft | 356 kts | 260° |
| 2026-05-04 02:09 | 45.39772 | -74.54333 | 19543 ft | 359 kts | 260° |
| 2026-05-04 02:10 | 45.39190 | -74.57797 | 20095 ft | 362 kts | 260° |
| 2026-05-04 02:10 | 45.38603 | -74.61296 | 20642 ft | 365 kts | 260° |
| 2026-05-04 02:10 | 45.38011 | -74.64819 | 21184 ft | 367 kts | 260° |
| 2026-05-04 02:10 | 45.37415 | -74.68369 | 21724 ft | 370 kts | 260° |
| 2026-05-04 02:11 | 45.36824 | -74.71890 | 22245 ft | 373 kts | 260° |
| 2026-05-04 02:11 | 45.36218 | -74.75490 | 22785 ft | 375 kts | 260° |
| 2026-05-04 02:11 | 45.35605 | -74.79109 | 23317 ft | 378 kts | 260° |
| 2026-05-04 02:11 | 45.34985 | -74.82752 | 23735 ft | 380 kts | 260° |
| 2026-05-04 02:12 | 45.34361 | -74.86417 | 24165 ft | 383 kts | 260° |
| 2026-05-04 02:12 | 45.33732 | -74.90104 | 24596 ft | 385 kts | 260° |
| 2026-05-04 02:12 | 45.33093 | -74.93817 | 25013 ft | 388 kts | 259° |
| 2026-05-04 02:12 | 45.32450 | -74.97544 | 25427 ft | 390 kts | 259° |
| 2026-05-04 02:13 | 45.31800 | -75.01306 | 25833 ft | 393 kts | 259° |
| 2026-05-04 02:13 | 45.31147 | -75.05083 | 26232 ft | 395 kts | 259° |
| 2026-05-04 02:13 | 45.30489 | -75.08889 | 26637 ft | 398 kts | 259° |
| 2026-05-04 02:13 | 45.29827 | -75.12713 | 27031 ft | 400 kts | 259° |
| 2026-05-04 02:14 | 45.29160 | -75.16561 | 27419 ft | 403 kts | 259° |
| 2026-05-04 02:14 | 45.28484 | -75.20430 | 27843 ft | 404 kts | 259° |
| 2026-05-04 02:14 | 45.27805 | -75.24311 | 28250 ft | 406 kts | 259° |
| 2026-05-04 02:14 | 45.27124 | -75.28210 | 28613 ft | 408 kts | 259° |
| 2026-05-04 02:15 | 45.26439 | -75.32127 | 28961 ft | 410 kts | 259° |
| 2026-05-04 02:15 | 45.25745 | -75.36066 | 29311 ft | 413 kts | 258° |
| 2026-05-04 02:15 | 45.25044 | -75.40025 | 29658 ft | 415 kts | 258° |
| 2026-05-04 02:15 | 45.24340 | -75.44004 | 29978 ft | 417 kts | 258° |
| 2026-05-04 02:16 | 45.23631 | -75.48006 | 30244 ft | 420 kts | 258° |
| 2026-05-04 02:16 | 45.22916 | -75.52025 | 30587 ft | 420 kts | 258° |
| 2026-05-04 02:16 | 45.22200 | -75.56040 | 30977 ft | 420 kts | 258° |
| 2026-05-04 02:16 | 45.21484 | -75.60053 | 31349 ft | 420 kts | 258° |
| 2026-05-04 02:17 | 45.20767 | -75.64063 | 31723 ft | 420 kts | 258° |
| 2026-05-04 02:17 | 45.20050 | -75.68074 | 32106 ft | 419 kts | 258° |
| 2026-05-04 02:17 | 45.19332 | -75.72082 | 32472 ft | 420 kts | 258° |
| 2026-05-04 02:17 | 45.18611 | -75.76090 | 32836 ft | 420 kts | 258° |
| 2026-05-04 02:18 | 45.17898 | -75.80050 | 33186 ft | 420 kts | 258° |
| 2026-05-04 02:18 | 45.17164 | -75.84116 | 33541 ft | 421 kts | 257° |
| 2026-05-04 02:18 | 45.16445 | -75.88080 | 33866 ft | 421 kts | 257° |
| 2026-05-04 02:18 | 45.15718 | -75.92094 | 34130 ft | 421 kts | 257° |
| 2026-05-04 02:19 | 45.14989 | -75.96120 | 34390 ft | 422 kts | 257° |
| 2026-05-04 02:19 | 45.14259 | -76.00147 | 34654 ft | 422 kts | 257° |
| 2026-05-04 02:19 | 45.13524 | -76.04180 | 34909 ft | 423 kts | 257° |
| 2026-05-04 02:19 | 45.12788 | -76.08212 | 35171 ft | 423 kts | 257° |
| 2026-05-04 02:20 | 45.12047 | -76.12251 | 35407 ft | 424 kts | 257° |
| 2026-05-04 02:20 | 45.11304 | -76.16279 | 35673 ft | 423 kts | 257° |
| 2026-05-04 02:20 | 45.10554 | -76.20318 | 35793 ft | 424 kts | 256° |
| 2026-05-04 02:20 | 45.09561 | -76.24230 | 35823 ft | 423 kts | 246° |
| 2026-05-04 02:21 | 45.06752 | -76.31540 | 35822 ft | 422 kts | 243° |
| 2026-05-04 02:21 | 45.03883 | -76.38789 | 35821 ft | 422 kts | 243° |
| 2026-05-04 02:22 | 45.01013 | -76.46031 | 35824 ft | 422 kts | 243° |
| 2026-05-04 02:22 | 44.98625 | -76.52048 | 35826 ft | 422 kts | 243° |
| 2026-05-04 02:23 | 44.95744 | -76.59284 | 35822 ft | 422 kts | 243° |
| 2026-05-04 02:23 | 44.92398 | -76.67686 | 35835 ft | 423 kts | 243° |
| 2026-05-04 02:24 | 44.89988 | -76.73746 | 35840 ft | 423 kts | 243° |
| 2026-05-04 02:24 | 44.87101 | -76.80965 | 35843 ft | 423 kts | 243° |
| 2026-05-04 02:25 | 44.84207 | -76.88178 | 35841 ft | 423 kts | 243° |
| 2026-05-04 02:25 | 44.81297 | -76.95373 | 35831 ft | 423 kts | 243° |
| 2026-05-04 02:26 | 44.78406 | -77.02517 | 35843 ft | 422 kts | 243° |
| 2026-05-04 02:26 | 44.75512 | -77.09708 | 35849 ft | 422 kts | 243° |
| 2026-05-04 02:27 | 44.72609 | -77.16892 | 35857 ft | 422 kts | 243° |
| 2026-05-04 02:27 | 44.69701 | -77.24060 | 35861 ft | 422 kts | 243° |
| 2026-05-04 02:28 | 44.66778 | -77.31220 | 35510 ft | 425 kts | 243° |
| 2026-05-04 02:28 | 44.65301 | -77.34831 | 34785 ft | 428 kts | 243° |
| 2026-05-04 02:28 | 44.63822 | -77.38455 | 34056 ft | 429 kts | 243° |
| 2026-05-04 02:29 | 44.62324 | -77.42123 | 33105 ft | 434 kts | 244° |
| 2026-05-04 02:29 | 44.60820 | -77.45799 | 32304 ft | 434 kts | 244° |
| 2026-05-04 02:29 | 44.59318 | -77.49461 | 31705 ft | 429 kts | 244° |
| 2026-05-04 02:29 | 44.57837 | -77.53062 | 31174 ft | 424 kts | 244° |
| 2026-05-04 02:30 | 44.56364 | -77.56633 | 30612 ft | 420 kts | 244° |
| 2026-05-04 02:30 | 44.54910 | -77.60161 | 30088 ft | 416 kts | 244° |
| 2026-05-04 02:30 | 44.53468 | -77.63656 | 29498 ft | 412 kts | 244° |
| 2026-05-04 02:30 | 44.52045 | -77.67105 | 28938 ft | 406 kts | 244° |
| 2026-05-04 02:31 | 44.50644 | -77.70501 | 28398 ft | 400 kts | 244° |
| 2026-05-04 02:31 | 44.49255 | -77.73855 | 27851 ft | 395 kts | 244° |
| 2026-05-04 02:31 | 44.47883 | -77.77163 | 27314 ft | 390 kts | 244° |
| 2026-05-04 02:31 | 44.46528 | -77.80429 | 26788 ft | 386 kts | 244° |
| 2026-05-04 02:32 | 44.45186 | -77.83661 | 26265 ft | 382 kts | 244° |
| 2026-05-04 02:32 | 44.43859 | -77.86855 | 25753 ft | 378 kts | 244° |
| 2026-05-04 02:32 | 44.42542 | -77.90010 | 25267 ft | 373 kts | 244° |
| 2026-05-04 02:32 | 44.41248 | -77.93104 | 24943 ft | 365 kts | 244° |
| 2026-05-04 02:33 | 44.39990 | -77.96107 | 24487 ft | 360 kts | 244° |
| 2026-05-04 02:33 | 44.38730 | -77.99114 | 24025 ft | 356 kts | 244° |
| 2026-05-04 02:33 | 44.37485 | -78.02085 | 23591 ft | 352 kts | 244° |
| 2026-05-04 02:33 | 44.36256 | -78.05022 | 23105 ft | 348 kts | 244° |
| 2026-05-04 02:34 | 44.35044 | -78.07917 | 22693 ft | 342 kts | 244° |
| 2026-05-04 02:34 | 44.33847 | -78.10764 | 22272 ft | 337 kts | 244° |
| 2026-05-04 02:34 | 44.32671 | -78.13562 | 21852 ft | 332 kts | 244° |
| 2026-05-04 02:34 | 44.31511 | -78.16323 | 21445 ft | 327 kts | 244° |
| 2026-05-04 02:35 | 44.30367 | -78.19049 | 21029 ft | 324 kts | 244° |
| 2026-05-04 02:35 | 44.29233 | -78.21745 | 20619 ft | 320 kts | 244° |
| 2026-05-04 02:35 | 44.28110 | -78.24406 | 20202 ft | 317 kts | 244° |
| 2026-05-04 02:35 | 44.26994 | -78.27048 | 19797 ft | 315 kts | 244° |
| 2026-05-04 02:36 | 44.25885 | -78.29673 | 19378 ft | 313 kts | 244° |
| 2026-05-04 02:36 | 44.24781 | -78.32285 | 18955 ft | 312 kts | 243° |
| 2026-05-04 02:36 | 44.23682 | -78.34883 | 18537 ft | 311 kts | 243° |
| 2026-05-04 02:36 | 44.22584 | -78.37469 | 18117 ft | 309 kts | 243° |
| 2026-05-04 02:37 | 44.21488 | -78.40041 | 17661 ft | 308 kts | 243° |
| 2026-05-04 02:37 | 44.20400 | -78.42593 | 17253 ft | 305 kts | 243° |
| 2026-05-04 02:37 | 44.19322 | -78.45123 | 16851 ft | 302 kts | 243° |
| 2026-05-04 02:37 | 44.18254 | -78.47634 | 16444 ft | 300 kts | 243° |
| 2026-05-04 02:38 | 44.17195 | -78.50125 | 16051 ft | 298 kts | 243° |
| 2026-05-04 02:38 | 44.16143 | -78.52595 | 15654 ft | 296 kts | 243° |
| 2026-05-04 02:38 | 44.15094 | -78.55052 | 15247 ft | 294 kts | 243° |
| 2026-05-04 02:38 | 44.14056 | -78.57487 | 14863 ft | 292 kts | 243° |
| 2026-05-04 02:39 | 44.13025 | -78.59907 | 14480 ft | 290 kts | 243° |
| 2026-05-04 02:39 | 44.11998 | -78.62316 | 14086 ft | 288 kts | 243° |
| 2026-05-04 02:39 | 44.10975 | -78.64703 | 13699 ft | 287 kts | 243° |
| 2026-05-04 02:39 | 44.09953 | -78.67075 | 13280 ft | 285 kts | 243° |
| 2026-05-04 02:40 | 44.08938 | -78.69433 | 12871 ft | 283 kts | 243° |
| 2026-05-04 02:40 | 44.07934 | -78.71767 | 12482 ft | 280 kts | 243° |
| 2026-05-04 02:40 | 44.06939 | -78.74084 | 12082 ft | 278 kts | 243° |
| 2026-05-04 02:40 | 44.05953 | -78.76382 | 11675 ft | 276 kts | 243° |
| 2026-05-04 02:41 | 44.04974 | -78.78663 | 11295 ft | 274 kts | 243° |
| 2026-05-04 02:41 | 44.03924 | -78.80868 | 10899 ft | 275 kts | 236° |
| 2026-05-04 02:41 | 44.02636 | -78.82846 | 10499 ft | 276 kts | 233° |
| 2026-05-04 02:41 | 44.01345 | -78.84779 | 10307 ft | 267 kts | 232° |
| 2026-05-04 02:42 | 44.00094 | -78.86648 | 10050 ft | 262 kts | 233° |
| 2026-05-04 02:42 | 43.98865 | -78.88492 | 9878 ft | 258 kts | 233° |
| 2026-05-04 02:42 | 43.97649 | -78.90320 | 9760 ft | 257 kts | 233° |
| 2026-05-04 02:42 | 43.96430 | -78.92153 | 9392 ft | 260 kts | 233° |
| 2026-05-04 02:43 | 43.95197 | -78.94009 | 8913 ft | 262 kts | 233° |
| 2026-05-04 02:43 | 43.93960 | -78.95869 | 8431 ft | 262 kts | 233° |
| 2026-05-04 02:43 | 43.92731 | -78.97709 | 7958 ft | 258 kts | 233° |
| 2026-05-04 02:43 | 43.91521 | -78.99515 | 7507 ft | 253 kts | 233° |
| 2026-05-04 02:44 | 43.90354 | -79.01248 | 7359 ft | 238 kts | 233° |
| 2026-05-04 02:44 | 43.89254 | -79.02873 | 7217 ft | 223 kts | 233° |
| 2026-05-04 02:44 | 43.88231 | -79.04391 | 7099 ft | 209 kts | 234° |
| 2026-05-04 02:44 | 43.87420 | -79.06033 | 7037 ft | 205 kts | 249° |
| 2026-05-04 02:45 | 43.87044 | -79.07899 | 6894 ft | 203 kts | 264° |
| 2026-05-04 02:45 | 43.87052 | -79.09852 | 6708 ft | 203 kts | 271° |
| 2026-05-04 02:45 | 43.87106 | -79.11801 | 6521 ft | 201 kts | 271° |
| 2026-05-04 02:45 | 43.87156 | -79.13730 | 6348 ft | 200 kts | 271° |
| 2026-05-04 02:46 | 43.87203 | -79.15651 | 6165 ft | 199 kts | 270° |
| 2026-05-04 02:46 | 43.87248 | -79.17564 | 5986 ft | 198 kts | 270° |
| 2026-05-04 02:46 | 43.87291 | -79.19472 | 5804 ft | 198 kts | 270° |
| 2026-05-04 02:46 | 43.87334 | -79.21376 | 5627 ft | 197 kts | 270° |
| 2026-05-04 02:47 | 43.87376 | -79.23274 | 5451 ft | 197 kts | 270° |
| 2026-05-04 02:47 | 43.87417 | -79.25174 | 5273 ft | 197 kts | 270° |
| 2026-05-04 02:47 | 43.87459 | -79.27071 | 5097 ft | 197 kts | 270° |
| 2026-05-04 02:47 | 43.87491 | -79.28964 | 4920 ft | 196 kts | 266° |
| 2026-05-04 02:48 | 43.87185 | -79.30790 | 4744 ft | 197 kts | 249° |
| 2026-05-04 02:48 | 43.86420 | -79.32378 | 4571 ft | 201 kts | 232° |
| 2026-05-04 02:48 | 43.85448 | -79.33759 | 4387 ft | 200 kts | 232° |
| 2026-05-04 02:48 | 43.84481 | -79.35119 | 4206 ft | 194 kts | 230° |
| 2026-05-04 02:49 | 43.83540 | -79.36382 | 4039 ft | 182 kts | 232° |
| 2026-05-04 02:49 | 43.82691 | -79.37585 | 3904 ft | 166 kts | 232° |
| 2026-05-04 02:49 | 43.81934 | -79.38683 | 3765 ft | 155 kts | 233° |
| 2026-05-04 02:49 | 43.81197 | -79.39764 | 3619 ft | 154 kts | 233° |
| 2026-05-04 02:50 | 43.80459 | -79.40844 | 3478 ft | 154 kts | 233° |
| 2026-05-04 02:50 | 43.79725 | -79.41920 | 3341 ft | 154 kts | 233° |
| 2026-05-04 02:50 | 43.78992 | -79.42992 | 3206 ft | 154 kts | 233° |
| 2026-05-04 02:50 | 43.78261 | -79.44061 | 3106 ft | 152 kts | 233° |
| 2026-05-04 02:51 | 43.77532 | -79.45129 | 3033 ft | 153 kts | 232° |
| 2026-05-04 02:51 | 43.76801 | -79.46197 | 3015 ft | 152 kts | 232° |
| 2026-05-04 02:51 | 43.76075 | -79.47257 | 2963 ft | 148 kts | 232° |
| 2026-05-04 02:51 | 43.75390 | -79.48256 | 2836 ft | 139 kts | 233° |
| 2026-05-04 02:52 | 43.74732 | -79.49219 | 2653 ft | 137 kts | 232° |
| 2026-05-04 02:52 | 43.74077 | -79.50174 | 2486 ft | 135 kts | 233° |
| 2026-05-04 02:52 | 43.73433 | -79.51116 | 2310 ft | 135 kts | 232° |
| 2026-05-04 02:52 | 43.72788 | -79.52058 | 2125 ft | 136 kts | 231° |
| 2026-05-04 02:53 | 43.72142 | -79.53000 | 1938 ft | 134 kts | 231° |
| 2026-05-04 02:53 | 43.71500 | -79.53936 | 1767 ft | 134 kts | 231° |
| 2026-05-04 02:53 | 43.70856 | -79.54875 | 1576 ft | 135 kts | 230° |
| 2026-05-04 02:53 | 43.70203 | -79.55829 | 1343 ft | 137 kts | 229° |
| 2026-05-04 02:54 | 43.69553 | -79.56794 | 1105 ft | 138 kts | 228° |
| 2026-05-04 02:54 | 43.68898 | -79.57751 | 946 ft | 136 kts | 228° |
| 2026-05-04 02:54 | 43.68232 | -79.58672 | 809 ft | 135 kts | 226° |
| 2026-05-04 02:54 | 43.67585 | -79.59613 | 668 ft | 131 kts | 227° |
| 2026-05-04 02:55 | 43.66548 | -79.61142 | 561 ft | 68 kts | 226° |
| 2026-05-04 02:55 | 43.66280 | -79.61533 | 564 ft | 48 kts | 226° |
| 2026-05-04 02:55 | 43.66106 | -79.61786 | 565 ft | 27 kts | 226° |
| 2026-05-04 02:56 | 43.66008 | -79.62008 | 567 ft | 27 kts | 248° |
| 2026-05-04 02:56 | 43.66001 | -79.62208 | 568 ft | 19 kts | 306° |
| 2026-05-04 02:56 | 43.66091 | -79.62325 | 562 ft | 17 kts | 318° |
| 2026-05-04 02:56 | 43.66181 | -79.62440 | 563 ft | 19 kts | 316° |
| 2026-05-04 02:57 | 43.66288 | -79.62482 | 561 ft | 16 kts | 29° |
| 2026-05-04 02:57 | 43.66366 | -79.62393 | 565 ft | 13 kts | 44° |
| 2026-05-04 02:57 | 43.66437 | -79.62300 | 567 ft | 18 kts | 43° |
| 2026-05-04 02:57 | 43.66539 | -79.62171 | 565 ft | 19 kts | 42° |
| 2026-05-04 02:58 | 43.66633 | -79.62051 | 567 ft | 18 kts | 42° |
| 2026-05-04 02:58 | 43.66720 | -79.61944 | 567 ft | 17 kts | 42° |
| 2026-05-04 02:58 | 43.66808 | -79.61832 | 574 ft | 17 kts | 43° |
| 2026-05-04 02:58 | 43.66896 | -79.61722 | 570 ft | 20 kts | 42° |
| 2026-05-04 02:59 | 43.67029 | -79.61555 | 570 ft | 29 kts | 43° |
| 2026-05-04 02:59 | 43.67161 | -79.61385 | 569 ft | 20 kts | 43° |
| 2026-05-04 02:59 | 43.67260 | -79.61269 | 565 ft | 19 kts | 359° |
| 2026-05-04 02:59 | 43.67358 | -79.61367 | 562 ft | 17 kts | 316° |
| 2026-05-04 03:00 | 43.67457 | -79.61497 | 565 ft | 23 kts | 317° |
| 2026-05-04 03:00 | 43.67576 | -79.61652 | 568 ft | 23 kts | 316° |
| 2026-05-04 03:00 | 43.67695 | -79.61805 | 567 ft | 23 kts | 316° |
| 2026-05-04 03:00 | 43.67805 | -79.61950 | 568 ft | 17 kts | 316° |
| 2026-05-04 03:01 | 43.67897 | -79.62054 | 569 ft | 17 kts | 341° |
| 2026-05-04 03:01 | 43.67983 | -79.61980 | 565 ft | 15 kts | 66° |
| 2026-05-04 03:01 | 43.68032 | -79.61868 | 563 ft | 11 kts | 43° |
| 2026-05-04 03:01 | 43.68076 | -79.61803 | 566 ft | 8 kts | 52° |
| 2026-05-04 03:02 | 43.68058 | -79.61754 | 569 ft | 6 kts | 136° |
| 2026-05-04 03:02 | 43.68033 | -79.61720 | 566 ft | 5 kts | 136° |
| 2026-05-04 03:02 | 43.68030 | -79.61717 | 567 ft | 0 kts | 136° |